Time;durP1;ratioP1;P1;durP2;ratioP2;P2;SDS_P1;SDS_P2;PMS_P1;PMS_P2;Temp;Humidity;BMP_temperature;BMP_pressure;BME280_temperature;BME280_humidity;BME280_pressure;Samples;Min_cycle;Max_cycle;Signal;HPM_P1;HPM_P2
2023/07/23 00:00:18;;;;;;;3.22;1.98;;;16.50;1.00;;;;;;5177516;28;20034;-61
2023/07/23 00:02:52;;;;;;;1.90;1.65;;;16.60;1.00;;;;;;5181329;28;20037;-63
2023/07/23 00:05:29;;;;;;;2.53;2.10;;;16.50;1.00;;;;;;5184026;28;20053;-61
2023/07/23 00:08:04;;;;;;;2.28;2.05;;;16.50;1.00;;;;;;5214744;28;20338;-63
2023/07/23 00:10:35;;;;;;;2.85;2.30;;;16.50;1.00;;;;;;5205088;28;20040;-62
2023/07/23 00:13:06;;;;;;;3.60;1.75;;;16.30;1.00;;;;;;5200033;28;20022;-62
2023/07/23 00:15:37;;;;;;;2.63;1.60;;;16.30;1.00;;;;;;5198549;28;20332;-63
2023/07/23 00:18:09;;;;;;;2.75;2.38;;;16.20;1.00;;;;;;5184182;28;20029;-65
2023/07/23 00:20:42;;;;;;;2.55;1.92;;;16.10;1.00;;;;;;5183512;28;20045;-63
2023/07/23 00:23:22;;;;;;;2.17;1.98;;;16.10;1.00;;;;;;5182973;28;20049;-64
2023/07/23 00:25:58;;;;;;;2.78;1.98;;;16.10;1.00;;;;;;5183635;28;20055;-63
2023/07/23 00:28:38;;;;;;;2.03;1.60;;;16.10;1.00;;;;;;5201697;28;20037;-64
2023/07/23 00:31:12;;;;;;;3.10;2.15;;;16.20;1.00;;;;;;5194584;28;20034;-62
2023/07/23 00:33:46;;;;;;;2.30;1.70;;;16.30;1.00;;;;;;5180807;28;20048;-64
2023/07/23 00:36:17;;;;;;;2.60;1.90;;;16.30;1.00;;;;;;5167738;28;20033;-63
2023/07/23 00:38:51;;;;;;;1.73;1.55;;;16.40;1.00;;;;;;5179155;28;20042;-62
2023/07/23 00:41:23;;;;;;;2.20;1.80;;;16.40;99.90;;;;;;5162792;28;20049;-63
2023/07/23 00:43:55;;;;;;;1.90;1.67;;;16.60;99.90;;;;;;5179844;28;20521;-61
2023/07/23 00:46:30;;;;;;;2.05;1.73;;;16.70;99.90;;;;;;5162405;28;20041;-62
2023/07/23 00:49:03;;;;;;;2.25;1.80;;;16.70;9.20;;;;;;5199862;28;20043;-65
2023/07/23 00:51:35;;;;;;;2.78;2.25;;;16.80;53.30;;;;;;5200789;28;20063;-60
2023/07/23 00:54:12;;;;;;;3.63;2.05;;;16.70;99.90;;;;;;5183311;28;20037;-63
2023/07/23 00:56:47;;;;;;;3.60;1.90;;;16.60;99.90;;;;;;5200608;28;20037;-62
2023/07/23 00:59:19;;;;;;;2.47;1.80;;;16.50;1.00;;;;;;5200597;28;20505;-64
2023/07/23 01:01:53;;;;;;;3.28;2.33;;;16.30;1.00;;;;;;5222954;23;20052;-85
2023/07/23 01:04:26;;;;;;;2.35;2.13;;;16.20;1.00;;;;;;5183063;28;20040;-86
2023/07/23 01:07:02;;;;;;;3.35;1.60;;;16.10;1.00;;;;;;5182670;28;20052;-86
2023/07/23 01:09:36;;;;;;;2.47;1.75;;;16.00;1.00;;;;;;5182862;28;20030;-85
2023/07/23 01:12:08;;;;;;;2.15;1.60;;;15.90;1.00;;;;;;5182417;28;20040;-85
2023/07/23 01:14:41;;;;;;;2.85;1.80;;;15.90;1.00;;;;;;5199156;28;20034;-85
2023/07/23 01:17:15;;;;;;;2.83;2.25;;;15.80;1.00;;;;;;5183189;28;20033;-85
2023/07/23 01:20:06;;;;;;;2.72;2.17;;;15.70;1.00;;;;;;5167239;28;20041;-85
2023/07/23 01:22:38;;;;;;;2.53;1.90;;;15.70;1.00;;;;;;5200018;28;20036;-85
2023/07/23 01:25:10;;;;;;;2.30;1.77;;;15.60;1.00;;;;;;5182420;28;20040;-85
2023/07/23 01:27:42;;;;;;;2.65;1.88;;;15.60;1.00;;;;;;5182458;28;20059;-87
2023/07/23 01:30:16;;;;;;;2.97;2.17;;;15.60;1.00;;;;;;5182225;28;20029;-84
2023/07/23 01:32:51;;;;;;;3.92;3.03;;;15.60;1.00;;;;;;5182099;28;20033;-88
2023/07/23 01:35:24;;;;;;;1.70;1.60;;;15.50;1.00;;;;;;5198560;28;20030;-87
2023/07/23 01:38:01;;;;;;;2.45;2.25;;;15.50;1.00;;;;;;5197748;28;20324;-84
2023/07/23 01:40:36;;;;;;;3.15;2.28;;;15.50;1.00;;;;;;5181296;28;20038;-87
2023/07/23 01:43:07;;;;;;;;;;;15.50;1.00;;;;;;5182954;28;20025;-87
2023/07/23 01:49:07;;;;;;;2.33;2.13;;;15.50;1.00;;;;;;5214537;28;20032;-85
2023/07/23 01:55:07;;;;;;;2.30;1.83;;;15.30;1.00;;;;;;5214519;28;20197;-86
2023/07/23 01:57:44;;;;;;;2.60;2.17;;;15.20;1.00;;;;;;5181603;28;20037;-85
2023/07/23 02:00:16;;;;;;;2.20;1.88;;;15.10;1.00;;;;;;5181323;28;20036;-85
2023/07/23 02:03:09;;;;;;;3.42;2.38;;;15.00;1.00;;;;;;5212978;28;20033;-85
2023/07/23 02:05:41;;;;;;;3.22;1.92;;;15.00;49.30;;;;;;5181516;28;20030;-86
2023/07/23 02:08:13;;;;;;;2.97;2.03;;;14.90;37.00;;;;;;5181571;28;20328;-86
2023/07/23 02:10:46;;;;;;;2.53;1.98;;;14.90;66.90;;;;;;5197689;28;20030;-86
2023/07/23 02:13:18;;;;;;;3.65;2.00;;;14.90;87.70;;;;;;5149372;28;20040;-85
2023/07/23 02:15:54;;;;;;;2.43;2.23;;;14.90;59.40;;;;;;5180690;28;20042;-86
2023/07/23 02:18:28;;;;;;;2.78;2.05;;;14.80;96.10;;;;;;5181517;28;20033;-85
2023/07/23 02:21:03;;;;;;;3.67;1.83;;;14.80;99.90;;;;;;5181324;28;20214;-86
2023/07/23 02:23:37;;;;;;;2.65;2.10;;;14.70;99.90;;;;;;5181362;28;20051;-86
2023/07/23 02:26:12;;;;;;;3.88;2.92;;;14.80;99.90;;;;;;5181826;28;20026;-85
2023/07/23 02:28:48;;;;;;;;;;;14.80;99.90;;;;;;5182023;28;20034;-85
2023/07/23 02:31:21;;;;;;;2.65;2.03;;;14.70;99.90;;;;;;5181210;28;19901;-85
2023/07/23 02:33:59;;;;;;;;;;;14.70;99.90;;;;;;5198502;28;20041;-86
2023/07/23 02:36:35;;;;;;;2.60;2.10;;;14.70;99.90;;;;;;5182940;28;19901;-86
2023/07/23 02:39:11;;;;;;;3.45;2.30;;;14.70;99.90;;;;;;5181828;28;20030;-86
2023/07/23 02:41:46;;;;;;;2.10;1.90;;;14.60;99.90;;;;;;5181889;28;20025;-87
2023/07/23 02:44:20;;;;;;;2.20;1.88;;;14.50;99.90;;;;;;5180821;28;20038;-85
2023/07/23 02:46:54;;;;;;;2.85;2.20;;;14.50;99.90;;;;;;5181127;28;20215;-86
2023/07/23 02:49:25;;;;;;;2.65;2.13;;;14.40;99.90;;;;;;5181319;28;20052;-85
2023/07/23 02:52:01;;;;;;;2.05;1.85;;;14.40;99.90;;;;;;5183193;28;20033;-86
2023/07/23 02:54:56;;;;;;;2.53;2.03;;;14.40;99.90;;;;;;5204753;28;20028;-85
2023/07/23 02:57:27;;;;;;;3.42;2.30;;;14.50;99.90;;;;;;5181529;28;20030;-85
2023/07/23 03:00:06;;;;;;;2.33;2.00;;;14.50;99.90;;;;;;5181927;28;20033;-85
2023/07/23 03:02:40;;;;;;;3.42;2.30;;;14.50;99.90;;;;;;5182601;28;20040;-85
2023/07/23 03:08:46;;;;;;;5.55;2.38;;;14.50;99.90;;;;;;5215798;28;20026;-88
2023/07/23 03:11:17;;;;;;;3.13;2.38;;;14.50;99.90;;;;;;5171812;28;20044;-85
2023/07/23 03:13:48;;;;;;;3.00;2.15;;;14.50;99.90;;;;;;5191962;28;20033;-85
2023/07/23 03:16:24;;;;;;;2.35;1.70;;;14.50;99.90;;;;;;5192213;28;20037;-87
2023/07/23 03:18:57;;;;;;;3.20;2.40;;;14.50;99.90;;;;;;5208613;28;20034;-87
2023/07/23 03:21:35;;;;;;;2.92;2.30;;;14.40;99.90;;;;;;5177751;28;20044;-87
2023/07/23 03:24:09;;;;;;;2.90;2.50;;;14.40;99.90;;;;;;5209286;28;20334;-85
2023/07/23 03:26:41;;;;;;;2.17;1.98;;;14.40;99.90;;;;;;5196332;28;20050;-85
2023/07/23 03:29:12;;;;;;;2.60;2.22;;;14.40;99.90;;;;;;5196667;28;20028;-85
2023/07/23 03:31:44;;;;;;;2.65;2.30;;;14.40;99.90;;;;;;5180607;28;20045;-85
2023/07/23 03:34:18;;;;;;;2.55;2.13;;;14.30;99.90;;;;;;5192866;28;20041;-86
2023/07/23 03:36:49;;;;;;;2.58;2.08;;;14.30;99.90;;;;;;5192038;28;20034;-85
2023/07/23 03:39:23;;;;;;;4.00;2.40;;;14.30;99.90;;;;;;5190609;28;20032;-85
2023/07/23 03:41:57;;;;;;;3.65;2.85;;;14.30;99.90;;;;;;5175307;28;20334;-84
2023/07/23 03:44:36;;;;;;;3.33;2.42;;;14.50;99.90;;;;;;5189410;28;20040;-85
2023/07/23 03:47:15;;;;;;;2.80;2.30;;;14.50;99.90;;;;;;5192581;28;20036;-85
2023/07/23 03:49:48;;;;;;;3.60;2.50;;;14.70;99.90;;;;;;5188123;28;20026;-85
2023/07/23 03:52:22;;;;;;;2.97;2.13;;;14.80;99.90;;;;;;5187767;28;20032;-85
2023/07/23 03:58:23;;;;;;;2.95;2.55;;;15.00;99.90;;;;;;5219947;28;20022;-86
2023/07/23 04:00:55;;;;;;;2.53;2.17;;;15.20;98.30;;;;;;5187161;28;20030;-86
2023/07/23 04:03:26;;;;;;;2.35;1.90;;;15.40;47.20;;;;;;5187117;28;20036;-87
2023/07/23 04:06:02;;;;;;;2.40;1.98;;;15.60;1.00;;;;;;5203780;28;20036;-86
2023/07/23 04:08:34;;;;;;;3.28;2.17;;;15.80;1.00;;;;;;5171161;28;20197;-85
2023/07/23 04:11:07;;;;;;;2.63;2.20;;;15.80;1.00;;;;;;5185677;28;20032;-86
2023/07/23 04:13:39;;;;;;;3.63;2.45;;;15.90;1.00;;;;;;5185528;28;20034;-84
2023/07/23 04:16:11;;;;;;;2.42;2.20;;;15.90;1.00;;;;;;5185504;28;20034;-85
2023/07/23 04:18:51;;;;;;;3.55;1.80;;;15.90;1.00;;;;;;5184588;28;20030;-85
2023/07/23 04:21:23;;;;;;;2.45;1.77;;;16.00;1.00;;;;;;5184183;28;20033;-85
2023/07/23 04:23:58;;;;;;;3.63;2.00;;;16.20;1.00;;;;;;5183878;28;20033;-86
2023/07/23 04:26:33;;;;;;;3.88;2.10;;;16.40;1.00;;;;;;5185661;28;20034;-86
2023/07/23 04:29:04;;;;;;;2.17;1.92;;;16.60;1.00;;;;;;5184388;28;20040;-85
2023/07/23 04:31:37;;;;;;;3.53;2.13;;;16.90;1.00;;;;;;5184005;28;20025;-85
2023/07/23 04:34:11;;;;;;;2.65;2.22;;;17.30;1.00;;;;;;5183576;28;20331;-86
2023/07/23 04:36:43;;;;;;;3.53;2.22;;;17.60;99.90;;;;;;5200061;28;20044;-85
2023/07/23 04:39:17;;;;;;;2.80;1.80;;;17.90;1.00;;;;;;5184429;28;20036;-86
2023/07/23 04:41:48;;;;;;;3.80;3.22;;;18.10;99.90;;;;;;5185984;28;20033;-86
2023/07/23 04:44:20;;;;;;;2.38;1.95;;;18.30;99.90;;;;;;5185112;28;20032;-87
2023/07/23 04:46:56;;;;;;;2.33;1.80;;;18.30;99.90;;;;;;5193654;28;20018;-85
2023/07/23 04:49:30;;;;;;;3.08;2.22;;;18.50;99.90;;;;;;5180308;28;20191;-85
2023/07/23 04:52:02;;;;;;;;;;;18.50;99.90;;;;;;5195996;28;20033;-85
2023/07/23 04:54:35;;;;;;;2.53;1.98;;;18.40;99.90;;;;;;5191050;28;19907;-86
2023/07/23 04:57:06;;;;;;;2.50;1.80;;;18.60;99.90;;;;;;5183932;28;20038;-86
2023/07/23 04:59:38;;;;;;;3.20;2.13;;;18.80;99.90;;;;;;5183046;28;20033;-86
2023/07/23 05:02:17;;;;;;;3.63;1.90;;;19.20;1.00;;;;;;5182525;28;20040;-87
2023/07/23 05:04:48;;;;;;;2.50;1.65;;;19.60;1.00;;;;;;5183086;28;20040;-87
2023/07/23 05:07:22;;;;;;;2.38;1.70;;;20.00;1.00;;;;;;5182497;28;20026;-86
2023/07/23 05:09:57;;;;;;;2.08;1.83;;;20.40;1.00;;;;;;5184376;28;20030;-87
2023/07/23 05:12:34;;;;;;;2.53;2.15;;;20.70;1.00;;;;;;5183151;28;20040;-86
2023/07/23 05:18:37;;;;;;;1.95;1.45;;;20.90;1.00;;;;;;5215541;28;20036;-86
2023/07/23 05:21:09;;;;;;;1.90;1.50;;;20.80;1.00;;;;;;5184075;28;20029;-88
2023/07/23 05:23:43;;;;;;;3.25;1.95;;;21.00;1.00;;;;;;5182729;28;20034;-86
2023/07/23 05:26:17;;;;;;;2.25;1.58;;;21.10;1.00;;;;;;5182950;28;20036;-88
2023/07/23 05:28:49;;;;;;;;;;;21.60;1.00;;;;;;5183076;28;20038;-86
2023/07/23 05:31:20;;;;;;;4.70;1.40;;;22.00;1.00;;;;;;5182496;28;19901;-87
2023/07/23 05:33:52;;;;;;;1.63;1.42;;;22.40;1.00;;;;;;5182399;28;20029;-87
2023/07/23 05:36:23;;;;;;;2.33;1.65;;;22.70;1.00;;;;;;5182195;28;20045;-86
2023/07/23 05:38:55;;;;;;;2.33;1.55;;;23.00;1.00;;;;;;5182640;28;20033;-86
2023/07/23 05:41:29;;;;;;;2.28;1.90;;;23.40;99.90;;;;;;5198604;28;20030;-87
2023/07/23 05:44:01;;;;;;;1.90;1.70;;;23.60;99.90;;;;;;5182773;28;20029;-86
2023/07/23 05:46:33;;;;;;;1.95;1.38;;;23.70;99.90;;;;;;5197934;28;20026;-86
2023/07/23 05:49:06;;;;;;;1.85;1.38;;;23.90;34.30;;;;;;5182446;28;20029;-87
2023/07/23 05:51:39;;;;;;;2.17;1.42;;;24.10;99.90;;;;;;5182429;28;20227;-86
2023/07/23 05:54:16;;;;;;;2.53;1.83;;;24.30;99.90;;;;;;5182916;28;20263;-86
2023/07/23 05:56:48;;;;;;;2.15;1.45;;;24.50;32.80;;;;;;5183506;28;20033;-87
2023/07/23 05:59:22;;;;;;;1.92;1.60;;;24.70;99.90;;;;;;5200156;28;20026;-87
2023/07/23 06:01:54;;;;;;;1.95;1.65;;;24.90;1.00;;;;;;5184989;28;20041;-86
2023/07/23 06:04:31;;;;;;;2.20;1.65;;;24.90;1.00;;;;;;5181503;28;20026;-85
2023/07/23 06:07:04;;;;;;;2.05;1.60;;;24.80;1.00;;;;;;5184065;28;20327;-87
2023/07/23 06:09:39;;;;;;;2.60;1.85;;;25.20;1.00;;;;;;5182775;28;20025;-86
2023/07/23 06:12:19;;;;;;;2.20;1.52;;;25.10;99.90;;;;;;5184105;28;20029;-86
2023/07/23 06:18:21;;;;;;;2.30;1.58;;;25.70;99.90;;;;;;5220764;28;20200;-86
2023/07/23 06:20:52;;;;;;;2.65;2.05;;;26.00;99.90;;;;;;5184644;28;20040;-86
2023/07/23 06:23:27;;;;;;;1.80;1.60;;;26.40;26.80;;;;;;5183155;28;20034;-84
2023/07/23 06:25:59;;;;;;;2.75;1.70;;;26.60;99.90;;;;;;5182489;28;20038;-84
2023/07/23 06:28:34;;;;;;;2.50;2.00;;;26.70;1.00;;;;;;5183021;28;20021;-86
2023/07/23 06:31:05;;;;;;;2.60;1.75;;;26.80;99.90;;;;;;5182358;28;20030;-86
2023/07/23 06:33:38;;;;;;;2.35;1.63;;;26.80;1.00;;;;;;5185921;28;20034;-87
2023/07/23 06:36:10;;;;;;;2.95;2.00;;;26.80;99.90;;;;;;5186494;28;20327;-86
2023/07/23 06:38:46;;;;;;;2.13;1.50;;;27.10;1.00;;;;;;5185469;28;20041;-86
2023/07/23 06:41:21;;;;;;;2.90;1.90;;;27.40;99.90;;;;;;5188522;28;20040;-87
2023/07/23 06:43:58;;;;;;;3.30;2.08;;;27.40;82.70;;;;;;5220148;28;20219;-86
2023/07/23 06:46:34;;;;;;;2.67;1.70;;;27.70;3.80;;;;;;5183693;28;20036;-85
2023/07/23 06:49:06;;;;;;;2.20;1.60;;;27.80;1.00;;;;;;5180770;28;20325;-84
2023/07/23 06:51:39;;;;;;;1.70;1.60;;;28.00;1.00;;;;;;5182150;28;20040;-86
2023/07/23 06:54:12;;;;;;;2.28;1.58;;;27.90;1.00;;;;;;5181726;28;20098;-86
2023/07/23 06:56:43;;;;;;;2.03;1.63;;;28.30;1.00;;;;;;5181870;28;20034;-85
2023/07/23 06:59:18;;;;;;;2.58;1.67;;;28.40;1.00;;;;;;5181297;28;20034;-87
2023/07/23 07:01:52;;;;;;;3.08;1.88;;;28.60;1.00;;;;;;5149947;28;20045;-86
2023/07/23 07:04:23;;;;;;;2.35;1.60;;;28.70;1.00;;;;;;5181865;28;20197;-86
2023/07/23 07:06:59;;;;;;;2.22;2.03;;;28.60;1.00;;;;;;5180829;28;20348;-86
2023/07/23 07:09:36;;;;;;;2.33;1.83;;;28.80;99.90;;;;;;5181608;28;20036;-87
2023/07/23 07:12:08;;;;;;;3.78;2.30;;;29.20;1.00;;;;;;5152717;28;20034;-88
2023/07/23 07:14:42;;;;;;;1.70;1.60;;;29.60;1.00;;;;;;5182538;28;20036;-86
2023/07/23 07:17:14;;;;;;;2.75;1.80;;;29.90;1.00;;;;;;5180710;28;20320;-86
2023/07/23 07:19:48;;;;;;;2.53;1.65;;;30.20;99.90;;;;;;5189909;28;20025;-89
2023/07/23 07:22:44;;;;;;;;;;;30.20;1.00;;;;;;5205191;28;20030;-88
2023/07/23 07:25:45;;;;;;;2.92;1.63;;;30.30;1.00;;;;;;5210346;22;20058;-68
2023/07/23 07:28:34;;;;;;;2.80;1.98;;;30.20;99.90;;;;;;5206772;28;20180;-69
2023/07/23 07:31:27;;;;;;;1.92;1.65;;;30.50;99.90;;;;;;5195141;28;20332;-69
2023/07/23 07:34:35;;;;;;;2.13;1.60;;;30.50;99.90;;;;;;5197035;28;20025;-69
2023/07/23 07:37:28;;;;;;;2.78;1.70;;;30.20;99.90;;;;;;5177389;28;20052;-69
2023/07/23 07:40:12;;;;;;;2.17;1.30;;;29.70;1.00;;;;;;5182347;28;20044;-69
2023/07/23 07:42:44;;;;;;;3.28;2.17;;;29.70;99.90;;;;;;5187465;28;20032;-70
2023/07/23 07:45:15;;;;;;;4.68;1.92;;;29.40;1.00;;;;;;5178052;28;20035;-71
2023/07/23 07:47:47;;;;;;;2.13;1.60;;;29.50;1.00;;;;;;5177208;28;20032;-69
2023/07/23 07:50:18;;;;;;;1.85;1.45;;;29.40;1.00;;;;;;5191839;28;20025;-69
2023/07/23 07:52:49;;;;;;;1.65;1.55;;;29.20;99.90;;;;;;5203620;28;20021;-70
2023/07/23 07:55:23;;;;;;;3.90;1.70;;;29.20;99.90;;;;;;5186473;28;20035;-70
2023/07/23 07:57:57;;;;;;;2.90;1.83;;;29.30;99.90;;;;;;5176147;28;20020;-69
2023/07/23 08:00:32;;;;;;;2.35;2.15;;;29.20;1.00;;;;;;5172865;28;20037;-69
2023/07/23 08:03:09;;;;;;;2.20;1.70;;;29.20;1.00;;;;;;5182001;28;20040;-71
2023/07/23 08:05:48;;;;;;;2.55;1.90;;;29.50;99.90;;;;;;5211459;28;20029;-70
2023/07/23 08:08:25;;;;;;;2.60;1.80;;;29.70;99.90;;;;;;5193184;28;20032;-70
2023/07/23 08:11:04;;;;;;;1.92;1.50;;;29.60;99.90;;;;;;5187267;28;20059;-70
2023/07/23 08:13:37;;;;;;;3.08;1.52;;;29.60;1.00;;;;;;5182246;28;20036;-71
2023/07/23 08:16:13;;;;;;;2.35;1.67;;;29.70;1.00;;;;;;5191851;28;20256;-69
2023/07/23 08:18:45;;;;;;;2.00;1.60;;;29.80;99.90;;;;;;5183523;28;20043;-69
2023/07/23 08:21:21;;;;;;;2.33;1.63;;;30.00;99.90;;;;;;5182311;28;20506;-70
2023/07/23 08:23:55;;;;;;;2.47;1.85;;;29.90;99.90;;;;;;5182987;28;20037;-69
2023/07/23 08:26:33;;;;;;;3.80;1.67;;;29.90;1.00;;;;;;5199384;28;20039;-70
2023/07/23 08:29:10;;;;;;;2.20;1.58;;;30.10;1.00;;;;;;5209877;28;20029;-69
2023/07/23 08:31:44;;;;;;;2.25;1.45;;;29.90;1.00;;;;;;5185378;28;20035;-70
2023/07/23 08:34:19;;;;;;;2.88;1.88;;;30.00;1.00;;;;;;5202434;28;20462;-72
2023/07/23 08:36:51;;;;;;;1.73;1.55;;;30.00;1.00;;;;;;5198883;28;20032;-70
2023/07/23 08:39:22;;;;;;;2.35;1.35;;;30.20;1.00;;;;;;5196195;28;20498;-70
2023/07/23 08:42:17;;;;;;;2.10;1.42;;;30.50;1.00;;;;;;5181969;28;20029;-72
2023/07/23 08:45:01;;;;;;;;;;;29.90;99.90;;;;;;5193399;28;20635;-70
2023/07/23 08:47:38;;;;;;;3.05;1.73;;;30.10;1.00;;;;;;5174735;28;20298;-71
2023/07/23 08:50:09;;;;;;;2.03;1.55;;;30.00;1.00;;;;;;5195637;28;20029;-70
2023/07/23 08:52:43;;;;;;;1.92;1.60;;;30.00;99.90;;;;;;5177511;28;20029;-71
2023/07/23 08:55:15;;;;;;;2.00;1.55;;;29.60;1.00;;;;;;5177621;28;20375;-71
2023/07/23 08:57:47;;;;;;;2.30;1.73;;;29.80;99.90;;;;;;5184888;28;20029;-70
2023/07/23 09:00:22;;;;;;;1.45;1.35;;;30.30;99.90;;;;;;5197809;28;20036;-70
2023/07/23 09:02:53;;;;;;;1.67;1.50;;;30.30;1.00;;;;;;5190464;28;20467;-71
2023/07/23 09:05:25;;;;;;;2.03;1.63;;;30.50;1.00;;;;;;5196644;28;20027;-71
2023/07/23 09:07:56;;;;;;;1.63;1.52;;;30.60;1.00;;;;;;5214115;28;20039;-71
2023/07/23 09:10:27;;;;;;;3.78;1.88;;;31.30;1.00;;;;;;5198357;28;20021;-71
2023/07/23 09:13:07;;;;;;;2.60;1.77;;;31.20;1.00;;;;;;5215764;28;20025;-71
2023/07/23 09:15:39;;;;;;;2.03;1.50;;;31.60;99.90;;;;;;5170788;28;20055;-70
2023/07/23 09:18:15;;;;;;;2.38;1.65;;;31.80;1.00;;;;;;5189421;28;20036;-71
2023/07/23 09:20:51;;;;;;;1.65;1.40;;;31.90;99.90;;;;;;5171286;28;20036;-70
2023/07/23 09:23:28;;;;;;;2.42;1.83;;;31.90;1.00;;;;;;5182012;28;20518;-70
2023/07/23 09:26:02;;;;;;;1.77;1.58;;;31.60;99.90;;;;;;5193979;28;20367;-70
2023/07/23 09:28:35;;;;;;;2.13;1.60;;;31.00;99.90;;;;;;5209240;28;20521;-70
2023/07/23 09:31:06;;;;;;;1.98;1.77;;;30.80;99.90;;;;;;5179887;28;20058;-71
2023/07/23 09:33:40;;;;;;;2.15;1.63;;;31.30;99.90;;;;;;5207328;28;20021;-70
2023/07/23 09:36:14;;;;;;;2.28;1.90;;;31.80;99.90;;;;;;5189392;28;20039;-70
2023/07/23 09:39:06;;;;;;;1.58;1.40;;;31.70;1.00;;;;;;5215928;28;20035;-70
2023/07/23 09:41:43;;;;;;;2.03;1.42;;;31.60;11.00;;;;;;5184996;28;20035;-70
2023/07/23 09:44:19;;;;;;;2.08;1.55;;;32.30;1.00;;;;;;5202392;28;20045;-70
2023/07/23 09:46:57;;;;;;;1.60;1.50;;;32.40;1.00;;;;;;5199901;28;20055;-70
2023/07/23 09:49:34;;;;;;;2.05;1.40;;;32.50;1.00;;;;;;5208131;28;20387;-71
2023/07/23 09:52:08;;;;;;;3.70;1.80;;;32.50;99.90;;;;;;5200986;28;20033;-70
2023/07/23 09:54:43;;;;;;;2.88;2.28;;;32.80;1.00;;;;;;5190155;28;20033;-70
2023/07/23 09:57:15;;;;;;;1.98;1.70;;;32.30;99.90;;;;;;5211649;28;20534;-70
2023/07/23 09:59:48;;;;;;;2.08;1.52;;;32.40;1.00;;;;;;5212888;28;20044;-69
2023/07/23 10:02:25;;;;;;;2.90;1.73;;;32.30;1.00;;;;;;5194223;28;20043;-70
2023/07/23 10:05:01;;;;;;;2.58;1.73;;;32.40;99.90;;;;;;5221257;28;20035;-71
2023/07/23 10:07:33;;;;;;;1.92;1.70;;;32.60;1.00;;;;;;5200759;28;20493;-70
2023/07/23 10:10:08;;;;;;;2.60;1.75;;;32.70;1.00;;;;;;5202561;28;20035;-70
2023/07/23 10:12:42;;;;;;;2.47;1.63;;;33.00;1.00;;;;;;5186318;28;20432;-71
2023/07/23 10:15:14;;;;;;;2.92;1.90;;;33.40;1.00;;;;;;5179446;28;20432;-71
2023/07/23 10:18:00;;;;;;;2.00;1.58;;;33.70;1.00;;;;;;5181529;28;20679;-70
2023/07/23 10:20:32;;;;;;;1.88;1.55;;;33.30;1.00;;;;;;5181230;28;20052;-70
2023/07/23 10:23:08;;;;;;;3.08;1.73;;;33.10;1.00;;;;;;5182179;28;20378;-71
2023/07/23 10:25:39;;;;;;;2.05;1.63;;;33.40;1.00;;;;;;5181890;28;20350;-71
2023/07/23 10:28:21;;;;;;;2.53;1.77;;;33.80;1.00;;;;;;5181066;28;20025;-71
2023/07/23 10:31:21;;;;;;;2.38;1.52;;;33.30;99.90;;;;;;5192010;28;20329;-70
2023/07/23 10:33:53;;;;;;;2.88;2.17;;;33.60;99.90;;;;;;5198341;28;20029;-70
2023/07/23 10:36:25;;;;;;;2.15;1.75;;;33.40;99.90;;;;;;5198970;28;20033;-70
2023/07/23 10:39:15;;;;;;;2.35;1.55;;;34.70;1.00;;;;;;5185428;28;20044;-70
2023/07/23 10:41:55;;;;;;;2.45;1.70;;;34.60;99.90;;;;;;5215109;28;21038;-72
2023/07/23 10:44:32;;;;;;;2.20;1.83;;;34.80;1.00;;;;;;5201309;28;20029;-71
2023/07/23 10:47:31;;;;;;;1.90;1.65;;;35.40;99.90;;;;;;5164428;28;20025;-69
2023/07/23 10:50:13;;;;;;;2.47;1.98;;;36.20;99.90;;;;;;5183099;28;20033;-70
2023/07/23 10:52:50;;;;;;;2.60;1.88;;;36.20;1.00;;;;;;5182855;28;20500;-70
2023/07/23 10:55:41;;;;;;;2.58;1.92;;;36.40;1.00;;;;;;5201021;28;20025;-71
2023/07/23 10:58:14;;;;;;;2.53;2.00;;;36.80;1.00;;;;;;5194475;28;20054;-70
2023/07/23 11:00:51;;;;;;;3.33;2.20;;;37.10;99.90;;;;;;5217452;28;20017;-70
2023/07/23 11:03:26;;;;;;;2.50;2.10;;;36.50;99.90;;;;;;5182602;28;20024;-70
2023/07/23 11:06:03;;;;;;;2.08;1.70;;;37.10;99.90;;;;;;5180459;28;20033;-70
2023/07/23 11:08:47;;;;;;;2.65;1.98;;;37.00;1.00;;;;;;5181859;28;20104;-71
2023/07/23 11:11:33;;;;;;;2.72;1.80;;;37.40;1.00;;;;;;5181307;28;20033;-71
2023/07/23 11:14:25;;;;;;;1.77;1.67;;;37.80;1.00;;;;;;5165761;28;20045;-70
2023/07/23 11:17:02;;;;;;;2.15;1.77;;;38.10;99.90;;;;;;5199470;28;20033;-71
2023/07/23 11:19:34;;;;;;;2.55;1.90;;;37.30;1.00;;;;;;5201569;28;20223;-71
2023/07/23 11:22:06;;;;;;;2.45;1.83;;;38.20;1.00;;;;;;5194000;28;20413;-70
2023/07/23 11:24:38;;;;;;;2.15;1.90;;;39.30;1.00;;;;;;5219468;28;20292;-69
2023/07/23 11:27:10;;;;;;;2.40;1.77;;;39.90;1.00;;;;;;5218294;28;20028;-71
2023/07/23 11:29:41;;;;;;;3.08;2.08;;;40.60;1.00;;;;;;5199011;28;20044;-71
2023/07/23 11:32:12;;;;;;;2.20;1.98;;;39.70;99.90;;;;;;5178998;28;20646;-72
2023/07/23 11:34:47;;;;;;;2.50;1.90;;;39.10;99.90;;;;;;5202923;28;20024;-70
2023/07/23 11:37:21;;;;;;;2.42;1.95;;;40.20;99.90;;;;;;5219257;28;20025;-71
2023/07/23 11:39:57;;;;;;;2.20;2.00;;;41.60;1.00;;;;;;5201833;28;20039;-70
2023/07/23 11:42:32;;;;;;;2.47;2.05;;;41.70;1.00;;;;;;5214416;28;20025;-71
2023/07/23 11:45:07;;;;;;;2.28;2.08;;;41.30;1.00;;;;;;5207037;28;20486;-70
2023/07/23 11:47:52;;;;;;;2.50;2.20;;;40.90;1.00;;;;;;5206286;28;20045;-70
2023/07/23 11:50:30;;;;;;;2.47;1.80;;;40.10;1.00;;;;;;5204109;28;20041;-70
2023/07/23 11:53:07;;;;;;;2.22;1.75;;;38.90;1.00;;;;;;5201865;28;20045;-71
2023/07/23 11:55:41;;;;;;;2.17;1.70;;;38.30;1.00;;;;;;5223754;28;20032;-70
2023/07/23 11:58:18;;;;;;;2.15;1.88;;;39.50;1.00;;;;;;5204131;28;20029;-70
2023/07/23 12:00:52;;;;;;;2.25;2.00;;;40.50;13.00;;;;;;5184592;28;20029;-70
2023/07/23 12:03:23;;;;;;;6.30;2.85;;;41.10;50.70;;;;;;5221155;28;20021;-70
2023/07/23 12:05:57;;;;;;;2.55;1.90;;;41.10;99.90;;;;;;5186359;28;20139;-70
2023/07/23 12:08:35;;;;;;;2.67;2.10;;;39.60;28.70;;;;;;5215613;28;20253;-69
2023/07/23 12:11:08;;;;;;;2.10;1.85;;;39.30;1.00;;;;;;5214041;28;20029;-69
2023/07/23 12:13:54;;;;;;;2.75;1.70;;;38.90;1.00;;;;;;5215385;28;20029;-70
2023/07/23 12:16:40;;;;;;;2.13;1.70;;;38.80;1.00;;;;;;5210167;28;20229;-70
2023/07/23 12:19:17;;;;;;;2.15;1.80;;;39.50;1.00;;;;;;5205592;28;20033;-70
2023/07/23 12:21:57;;;;;;;2.30;1.90;;;40.40;1.00;;;;;;5195188;28;20306;-71
2023/07/23 12:24:30;;;;;;;2.17;1.70;;;40.60;1.00;;;;;;5175056;28;20037;-70
2023/07/23 12:27:03;;;;;;;2.47;2.00;;;40.80;1.00;;;;;;5216832;28;20033;-70
2023/07/23 12:29:43;;;;;;;1.73;1.60;;;39.90;1.00;;;;;;5169468;28;20033;-70
2023/07/23 12:32:19;;;;;;;2.10;1.90;;;40.30;1.00;;;;;;5211757;28;20467;-70
2023/07/23 12:34:51;;;;;;;1.95;1.70;;;41.20;1.00;;;;;;5203885;28;20064;-70
2023/07/23 12:37:25;;;;;;;2.55;1.95;;;41.40;1.00;;;;;;5189120;28;20028;-70
2023/07/23 12:39:57;;;;;;;1.90;1.70;;;41.80;1.00;;;;;;5201941;28;20028;-70
2023/07/23 12:42:33;;;;;;;2.22;1.70;;;42.40;1.00;;;;;;5189249;28;20029;-71
2023/07/23 12:45:10;;;;;;;2.13;1.80;;;42.60;1.00;;;;;;5171920;28;20044;-69
2023/07/23 12:47:41;;;;;;;2.42;1.75;;;43.00;99.90;;;;;;5188927;28;20033;-70
2023/07/23 12:50:17;;;;;;;2.03;1.55;;;42.40;33.80;;;;;;5223013;28;20297;-70
2023/07/23 12:52:49;;;;;;;1.92;1.73;;;42.10;1.00;;;;;;5189058;28;20044;-69
2023/07/23 12:55:21;;;;;;;2.22;1.90;;;41.10;99.90;;;;;;5188135;28;20035;-70
2023/07/23 12:57:52;;;;;;;1.85;1.60;;;40.70;1.00;;;;;;5203324;28;20021;-70
2023/07/23 13:00:26;;;;;;;2.22;1.88;;;40.90;99.90;;;;;;5181357;28;20029;-69
2023/07/23 13:02:57;;;;;;;1.73;1.55;;;42.00;1.00;;;;;;5173328;28;20529;-71
2023/07/23 13:05:33;;;;;;;1.75;1.60;;;42.80;1.00;;;;;;5187859;28;20045;-70
2023/07/23 13:08:04;;;;;;;2.28;2.08;;;43.60;1.00;;;;;;5187935;28;20024;-70
2023/07/23 13:10:36;;;;;;;2.08;1.85;;;42.20;1.00;;;;;;5204548;28;20028;-70
2023/07/23 13:13:07;;;;;;;2.13;1.95;;;41.60;1.00;;;;;;5206307;28;20025;-71
2023/07/23 13:15:42;;;;;;;2.28;2.00;;;41.50;1.00;;;;;;5202875;28;20029;-71
2023/07/23 13:18:13;;;;;;;2.13;1.77;;;42.10;1.00;;;;;;5222863;28;20035;-69
2023/07/23 13:20:48;;;;;;;1.98;1.55;;;40.20;1.00;;;;;;5206755;28;20029;-69
2023/07/23 13:23:22;;;;;;;2.30;1.70;;;38.40;1.00;;;;;;5222723;28;20025;-68
2023/07/23 13:26:04;;;;;;;2.80;1.60;;;37.20;1.00;;;;;;5215979;28;20541;-69
2023/07/23 13:28:41;;;;;;;2.30;2.00;;;37.00;1.00;;;;;;5184767;28;20033;-71
2023/07/23 13:31:14;;;;;;;1.88;1.50;;;37.50;1.00;;;;;;5157484;28;20030;-69
2023/07/23 13:33:47;;;;;;;2.38;1.73;;;38.50;1.00;;;;;;5182654;28;20040;-69
2023/07/23 13:36:21;;;;;;;2.22;1.70;;;38.40;1.00;;;;;;5184751;28;20325;-69
2023/07/23 13:38:53;;;;;;;2.53;2.03;;;39.50;1.00;;;;;;5178896;28;20275;-70
2023/07/23 13:41:29;;;;;;;2.72;1.92;;;40.00;1.00;;;;;;5193634;28;20025;-70
2023/07/23 13:44:00;;;;;;;3.35;2.20;;;40.20;1.00;;;;;;5213033;28;20032;-69
2023/07/23 13:46:34;;;;;;;1.95;1.75;;;40.20;1.00;;;;;;5175414;28;20073;-71
2023/07/23 13:49:08;;;;;;;2.42;2.20;;;37.00;1.00;;;;;;5173643;28;20037;-70
2023/07/23 13:51:39;;;;;;;2.85;1.90;;;37.60;1.00;;;;;;5198877;28;20048;-69
2023/07/23 13:54:10;;;;;;;2.58;2.28;;;37.90;1.00;;;;;;5193206;28;20040;-70
2023/07/23 13:56:42;;;;;;;2.00;1.70;;;38.10;1.00;;;;;;5211776;28;20025;-70